createdAt,value
2023-04-11T00:00:13.204Z,94743.53
2023-04-11T00:02:40.524Z,94729.78
2023-04-11T00:05:08.616Z,94740.16
2023-04-11T00:07:36.120Z,94731.75
2023-04-11T00:10:03.406Z,94727.72
2023-04-11T00:12:31.004Z,94726.91
2023-04-11T00:14:57.912Z,94689.53
2023-04-11T00:17:25.059Z,94653.19
2023-04-11T00:19:53.380Z,94700.47
2023-04-11T00:22:20.705Z,94718.38
2023-04-11T00:24:47.575Z,94725.66
2023-04-11T00:27:16.017Z,94714.31
2023-04-11T00:29:43.210Z,94701.75
2023-04-11T00:32:10.286Z,94667.16
2023-04-11T00:34:37.529Z,94717.44
2023-04-11T00:37:04.690Z,94671.66
2023-04-11T00:39:34.199Z,94668.41
2023-04-11T00:42:08.913Z,94700.25
2023-04-11T00:44:36.496Z,94705.56
2023-04-11T00:47:07.275Z,94714.31
2023-04-11T00:49:35.309Z,94721.38
2023-04-11T00:52:03.136Z,94683.88
2023-04-11T00:54:33.723Z,94692.28
2023-04-11T00:57:05.777Z,94701.53
2023-04-11T00:59:33.734Z,94654.34
2023-04-11T01:02:01.759Z,94716.16
2023-04-11T01:04:30.029Z,94709.25
2023-04-11T01:07:04.275Z,94707.97
2023-04-11T01:09:34.048Z,94647.88
2023-04-11T01:12:03.012Z,94698.31
2023-04-11T01:14:30.716Z,94715.84
2023-04-11T01:16:58.781Z,94707.41
2023-04-11T01:19:26.725Z,94721.97
2023-04-11T01:21:56.536Z,94728.41
2023-04-11T01:24:24.148Z,94686.97
2023-04-11T01:26:52.118Z,94687.09
2023-04-11T01:29:20.441Z,94707.38
2023-04-11T01:31:47.417Z,94677.75
2023-04-11T01:34:17.154Z,94695.06
2023-04-11T01:36:44.968Z,94665.97
2023-04-11T01:39:11.947Z,94674.97
2023-04-11T01:41:40.850Z,94686.28
2023-04-11T01:44:08.272Z,94682.94
2023-04-11T01:46:36.518Z,94697.94
2023-04-11T01:49:04.062Z,94719.38
2023-04-11T01:51:32.251Z,94709.25
2023-04-11T01:53:59.325Z,94688.13
2023-04-11T01:56:26.512Z,94678.31
2023-04-11T01:58:54.085Z,94662.28
2023-04-11T02:01:21.717Z,94680.84
2023-04-11T02:03:49.039Z,94667.34
2023-04-11T02:06:16.910Z,94700.59
2023-04-11T02:08:44.845Z,94683.19
2023-04-11T02:11:11.958Z,94697.72
2023-04-11T02:13:38.995Z,94661.72
2023-04-11T02:16:15.278Z,94696.09
2023-04-11T02:18:44.227Z,94698.63
2023-04-11T02:21:12.135Z,94701.75
2023-04-11T02:23:39.516Z,94674.53
2023-04-11T02:26:06.592Z,94696.69
2023-04-11T02:28:33.749Z,94666.34
2023-04-11T02:31:01.024Z,94703.94
2023-04-11T02:33:28.256Z,94696.69
2023-04-11T02:35:55.726Z,94675.91
2023-04-11T02:38:23.201Z,94676.94
2023-04-11T02:40:51.557Z,94703.59
2023-04-11T02:43:18.665Z,94641.75
2023-04-11T02:45:45.809Z,94692.88
2023-04-11T02:48:14.458Z,94694.50
2023-04-11T02:50:44.785Z,94705.78
2023-04-11T02:53:12.379Z,94568.19
2023-04-11T02:55:46.840Z,94691.34
2023-04-11T02:58:17.814Z,94674.63
2023-04-11T03:00:49.512Z,94689.06
2023-04-11T03:03:16.880Z,94679.25
2023-04-11T03:05:46.672Z,94679.38
2023-04-11T03:08:16.048Z,94649.84
2023-04-11T03:10:49.823Z,94671.75
2023-04-11T03:13:17.496Z,94688.69
2023-04-11T03:15:45.181Z,94690.00
2023-04-11T03:18:13.094Z,94694.59
2023-04-11T03:20:43.654Z,94627.56
2023-04-11T03:23:12.784Z,94680.75
2023-04-11T03:25:40.605Z,94678.00
2023-04-11T03:28:08.589Z,94682.59
2023-04-11T03:30:35.787Z,94673.13
2023-04-11T03:33:02.879Z,94656.50
2023-04-11T03:35:31.755Z,94683.06
2023-04-11T03:37:59.830Z,94676.81
2023-04-11T03:40:27.407Z,94688.13
2023-04-11T03:43:06.906Z,94689.16
2023-04-11T03:45:36.533Z,94678.53
2023-04-11T03:48:06.921Z,94633.56
2023-04-11T03:50:59.570Z,94676.47
2023-04-11T03:53:36.313Z,94671.28
2023-04-11T03:56:17.211Z,94667.00
2023-04-11T03:58:44.472Z,94655.81
2023-04-11T04:01:11.922Z,94634.25
2023-04-11T04:03:39.824Z,94650.16
2023-04-11T04:06:10.810Z,94668.28
2023-04-11T04:08:39.763Z,94657.00
2023-04-11T04:11:07.251Z,94643.69
2023-04-11T04:13:36.371Z,94692.97
2023-04-11T04:16:12.908Z,94655.91
2023-04-11T04:18:42.892Z,94692.97
2023-04-11T04:21:11.068Z,94659.88
2023-04-11T04:23:39.558Z,94631.94
2023-04-11T04:26:25.208Z,94660.41
2023-04-11T04:29:34.184Z,94678.88
2023-04-11T04:32:11.824Z,94677.63
2023-04-11T04:34:49.363Z,94691.47
2023-04-11T04:37:25.008Z,94674.03
2023-04-11T04:40:09.171Z,94673.91
2023-04-11T04:42:45.136Z,94684.19
2023-04-11T04:45:12.212Z,94690.75
2023-04-11T04:47:40.513Z,94647.84
2023-04-11T04:50:08.576Z,94673.34
2023-04-11T04:52:35.540Z,94663.19
2023-04-11T04:55:02.651Z,94670.47
2023-04-11T04:57:32.315Z,94670.00
2023-04-11T05:00:00.589Z,94640.81
2023-04-11T05:02:30.913Z,94673.81
2023-04-11T05:05:04.062Z,94659.88
2023-04-11T05:07:32.943Z,94681.91
2023-04-11T05:10:02.463Z,94669.44
2023-04-11T05:12:30.704Z,94682.34
2023-04-11T05:15:03.419Z,94649.03
2023-04-11T05:17:33.047Z,94657.56
2023-04-11T05:20:00.544Z,94663.69
2023-04-11T05:22:28.229Z,94673.72
2023-04-11T05:24:57.215Z,94674.53
2023-04-11T05:27:24.319Z,94660.00
2023-04-11T05:29:51.665Z,94661.94
2023-04-11T05:32:19.650Z,94672.31
2023-04-11T05:34:58.150Z,94641.19
2023-04-11T05:37:40.165Z,94647.41
2023-04-11T05:40:09.574Z,94669.44
2023-04-11T05:42:36.785Z,94670.34
2023-04-11T05:45:06.287Z,94676.09
2023-04-11T05:47:33.739Z,94636.78
2023-04-11T05:50:01.454Z,94603.06
2023-04-11T05:52:29.040Z,94633.13
2023-04-11T05:54:56.336Z,94660.97
2023-04-11T05:57:23.886Z,94590.06
2023-04-11T05:59:53.288Z,94648.19
2023-04-11T06:02:20.774Z,94626.16
2023-04-11T06:04:48.281Z,94660.59
2023-04-11T06:07:15.827Z,94653.00
2023-04-11T06:09:43.145Z,94627.44
2023-04-11T06:12:10.658Z,94637.34
2023-04-11T06:14:40.641Z,94619.69
2023-04-11T06:17:08.034Z,94637.53
2023-04-11T06:19:34.982Z,94643.34
2023-04-11T06:22:02.030Z,94615.19
2023-04-11T06:24:37.455Z,94572.91
2023-04-11T06:27:04.766Z,94639.47
2023-04-11T06:29:32.461Z,94529.22
2023-04-11T06:31:59.604Z,94618.97
2023-04-11T06:34:26.767Z,94605.38
2023-04-11T06:36:54.066Z,94572.97
2023-04-11T06:39:21.906Z,94615.47
2023-04-11T06:41:49.852Z,94627.78
2023-04-11T06:44:24.752Z,94568.56
2023-04-11T06:46:51.924Z,94616.97
2023-04-11T06:49:19.093Z,94617.03
2023-04-11T06:51:47.348Z,94610.09
2023-04-11T06:54:14.241Z,94627.72
2023-04-11T06:56:41.287Z,94626.34
2023-04-11T06:59:08.425Z,94598.97
2023-04-11T07:01:39.540Z,94633.13
2023-04-11T07:04:07.438Z,94642.03
2023-04-11T07:06:35.990Z,94581.88
2023-04-11T07:09:06.776Z,94630.84
2023-04-11T07:11:33.928Z,94639.72
2023-04-11T07:14:01.471Z,94620.94
2023-04-11T07:16:28.725Z,94558.63
2023-04-11T07:18:55.937Z,94623.25
2023-04-11T07:21:23.194Z,94625.59
2023-04-11T07:23:50.204Z,94624.44
2023-04-11T07:26:18.189Z,94606.97
2023-04-11T07:28:48.316Z,94575.25
2023-04-11T07:31:21.678Z,94597.63
2023-04-11T07:33:48.935Z,94614.88
2023-04-11T07:36:16.467Z,94621.09
2023-04-11T07:38:43.628Z,94580.63
2023-04-11T07:41:10.544Z,94602.19
2023-04-11T07:43:38.901Z,94588.72
2023-04-11T07:46:06.909Z,94583.78
2023-04-11T07:48:34.041Z,94587.59
2023-04-11T07:51:01.862Z,94595.38
2023-04-11T07:53:31.086Z,94592.19
2023-04-11T07:55:58.468Z,94579.09
2023-04-11T07:58:25.624Z,94602.16
2023-04-11T08:00:53.714Z,94588.31
2023-04-11T08:03:21.200Z,94587.94
2023-04-11T08:05:48.395Z,94588.38
2023-04-11T08:08:19.007Z,94582.88
2023-04-11T08:10:46.132Z,94578.59
2023-04-11T08:13:13.398Z,94566.22
2023-04-11T08:15:40.568Z,94562.06
2023-04-11T08:18:07.669Z,94580.78
2023-04-11T08:20:34.964Z,94578.41
2023-04-11T08:23:06.237Z,94574.72
2023-04-11T08:25:33.570Z,94568.69
2023-04-11T08:28:00.646Z,94569.47
2023-04-11T08:30:27.733Z,94553.34
2023-04-11T08:32:54.855Z,94556.06
2023-04-11T08:35:22.155Z,94537.03
2023-04-11T08:37:50.652Z,94550.13
2023-04-11T08:40:18.216Z,94531.63
2023-04-11T08:42:46.106Z,94537.84
2023-04-11T08:45:13.458Z,94545.03
2023-04-11T08:47:41.985Z,94548.59
2023-04-11T08:50:11.173Z,94518.13
2023-04-11T08:52:40.181Z,94508.00
2023-04-11T08:55:07.497Z,94512.81
2023-04-11T08:57:35.003Z,94533.66
2023-04-11T09:00:19.041Z,94546.28
2023-04-11T09:03:04.242Z,94548.69
2023-04-11T09:05:35.544Z,94521.66
2023-04-11T09:08:07.683Z,94489.56
2023-04-11T09:10:35.912Z,94507.50
2023-04-11T09:13:21.187Z,94512.00
2023-04-11T09:15:48.624Z,94508.22
2023-04-11T09:18:33.009Z,94486.50
2023-04-11T09:21:01.835Z,94471.97
2023-04-11T09:23:29.242Z,94459.72
2023-04-11T09:25:57.220Z,94505.50
2023-04-11T09:28:24.798Z,94485.38
2023-04-11T09:30:53.612Z,94491.41
2023-04-11T09:33:23.187Z,94487.34
2023-04-11T09:35:54.840Z,94474.53
2023-04-11T09:38:36.728Z,94480.44
2023-04-11T09:41:04.605Z,94470.31
2023-04-11T09:43:55.707Z,94437.34
2023-04-11T09:46:23.223Z,94463.72
2023-04-11T09:48:51.981Z,94470.25
2023-04-11T09:51:35.059Z,94463.00
2023-04-11T09:54:04.501Z,94456.88
2023-04-11T09:56:36.336Z,94462.25
2023-04-11T09:59:04.437Z,94447.53
2023-04-11T10:01:32.319Z,94444.03
2023-04-11T10:04:01.062Z,94427.19
2023-04-11T10:06:39.152Z,94430.91
2023-04-11T10:09:11.767Z,94454.97
2023-04-11T10:11:44.176Z,94399.84
2023-04-11T10:14:39.463Z,94443.09
2023-04-11T10:17:22.698Z,94361.28
2023-04-11T10:19:56.667Z,94358.16
2023-04-11T10:22:46.579Z,94433.19
2023-04-11T10:25:17.979Z,94424.38
2023-04-11T10:27:53.564Z,94422.25
2023-04-11T10:30:43.697Z,94419.09
2023-04-11T10:33:19.536Z,94391.44
2023-04-11T10:36:10.158Z,94384.06
2023-04-11T10:38:43.753Z,94391.09
2023-04-11T10:41:22.918Z,94399.44
2023-04-11T10:43:50.214Z,94392.63
2023-04-11T10:46:26.733Z,94393.84
2023-04-11T10:49:04.805Z,94345.16
2023-04-11T10:51:33.362Z,94365.41
2023-04-11T10:54:00.932Z,94372.00
2023-04-11T10:56:40.909Z,94377.50
2023-04-11T10:59:10.754Z,94371.13
2023-04-11T11:04:11.073Z,94367.25
2023-04-11T11:06:47.212Z,94301.63
2023-04-11T11:09:23.560Z,94346.09
2023-04-11T11:12:16.191Z,94347.13
2023-04-11T11:14:45.803Z,94354.94
2023-04-11T11:17:14.495Z,94348.28
2023-04-11T11:19:45.897Z,94355.66
2023-04-11T11:22:17.413Z,94360.06
2023-04-11T11:24:44.352Z,94352.25
2023-04-11T11:27:22.715Z,94338.47
2023-04-11T11:29:50.974Z,94335.06
2023-04-11T11:32:24.898Z,94333.59
2023-04-11T11:34:53.462Z,94332.88
2023-04-11T11:37:21.537Z,94317.88
2023-04-11T11:39:49.556Z,94313.88
2023-04-11T11:42:17.123Z,94311.41
2023-04-11T11:44:44.317Z,94298.88
2023-04-11T11:47:15.584Z,94295.75
2023-04-11T11:49:44.608Z,94296.03
2023-04-11T11:52:12.626Z,94286.47
2023-04-11T11:54:47.386Z,94294.16
2023-04-11T11:57:24.434Z,94294.78
2023-04-11T11:59:55.097Z,94287.25
2023-04-11T12:02:24.167Z,94291.09
2023-04-11T12:05:00.264Z,94287.56
2023-04-11T12:07:32.739Z,94279.81
2023-04-11T12:10:01.324Z,94286.97
2023-04-11T12:12:38.612Z,94285.00
2023-04-11T12:15:16.863Z,94277.31
2023-04-11T12:17:47.759Z,94265.97
2023-04-11T12:20:17.642Z,94272.66
2023-04-11T12:22:44.615Z,94286.63
2023-04-11T12:25:14.176Z,94263.88
2023-04-11T12:27:43.307Z,94229.50
2023-04-11T12:30:13.469Z,94246.78
2023-04-11T12:32:41.395Z,94272.56
2023-04-11T12:35:08.842Z,94208.91
2023-04-11T12:37:35.974Z,94255.22
2023-04-11T12:40:07.209Z,94257.72
2023-04-11T12:42:36.860Z,94112.44
2023-04-11T12:45:11.045Z,94232.19
2023-04-11T12:47:38.321Z,94208.34
2023-04-11T12:50:07.264Z,94239.75
2023-04-11T12:52:35.189Z,94246.78
2023-04-11T12:55:02.614Z,94187.69
2023-04-11T12:57:30.875Z,94216.75
2023-04-11T12:59:58.037Z,94236.97
2023-04-11T13:02:25.503Z,94210.06
2023-04-11T13:04:55.710Z,94174.75
2023-04-11T13:07:23.328Z,94216.16
2023-04-11T13:09:50.519Z,94212.84
2023-04-11T13:12:17.790Z,94206.50
2023-04-11T13:14:44.940Z,94214.28
2023-04-11T13:17:12.078Z,94209.25
2023-04-11T13:19:39.183Z,94184.63
2023-04-11T13:22:06.638Z,94209.00
2023-04-11T13:24:33.749Z,94190.72
2023-04-11T13:27:01.211Z,94197.81
2023-04-11T13:29:28.348Z,94191.22
2023-04-11T13:31:55.888Z,94191.56
2023-04-11T13:34:23.177Z,94213.41
2023-04-11T13:36:51.428Z,94208.00
2023-04-11T13:39:18.414Z,94193.28
2023-04-11T13:41:46.008Z,94216.63
2023-04-11T13:44:13.028Z,94196.06
2023-04-11T13:46:41.501Z,94203.63
2023-04-11T13:49:08.741Z,94194.47
2023-04-11T13:51:35.834Z,94194.91
2023-04-11T13:54:03.025Z,94181.97
2023-04-11T13:56:30.092Z,94167.56
2023-04-11T13:58:57.532Z,94182.50
2023-04-11T14:01:24.755Z,94095.47
2023-04-11T14:03:52.370Z,94161.81
2023-04-11T14:06:19.899Z,94201.28
2023-04-11T14:08:48.646Z,94103.19
2023-04-11T14:11:16.616Z,94179.00
2023-04-11T14:13:43.669Z,94156.22
2023-04-11T14:16:11.437Z,94191.72
2023-04-11T14:18:38.409Z,94171.28
2023-04-11T14:21:23.969Z,94171.47
2023-04-11T14:23:51.172Z,94184.97
2023-04-11T14:26:18.969Z,94160.13
2023-04-11T14:28:46.158Z,94133.16
2023-04-11T14:31:17.812Z,94183.56
2023-04-11T14:33:44.918Z,94183.72
2023-04-11T14:36:11.909Z,94180.53
2023-04-11T14:38:39.377Z,94130.00
2023-04-11T14:41:07.242Z,94156.06
2023-04-11T14:43:34.547Z,94180.66
2023-04-11T14:46:01.672Z,94179.47
2023-04-11T14:48:28.971Z,94180.47
2023-04-11T14:50:56.302Z,94146.69
2023-04-11T14:53:23.272Z,94161.78
2023-04-11T14:55:50.188Z,94153.84
2023-04-11T14:58:17.652Z,94166.44
2023-04-11T15:00:44.844Z,94175.69
2023-04-11T15:03:12.441Z,94145.19
2023-04-11T15:05:40.069Z,94181.00
2023-04-11T15:08:08.220Z,94157.47
2023-04-11T15:10:35.132Z,94162.22
2023-04-11T15:13:02.182Z,94158.84
2023-04-11T15:15:29.200Z,94159.22
2023-04-11T15:18:19.855Z,94161.75
2023-04-11T15:20:46.956Z,94180.53
2023-04-11T15:23:13.948Z,94184.69
2023-04-11T15:25:40.957Z,94180.97
2023-04-11T15:28:08.726Z,94175.63
2023-04-11T15:30:45.429Z,94149.50
2023-04-11T15:33:12.883Z,94172.81
2023-04-11T15:35:43.676Z,94162.75
2023-04-11T15:38:12.456Z,94181.69
2023-04-11T15:40:39.838Z,94177.88
2023-04-11T15:43:08.677Z,94181.09
2023-04-11T15:45:37.303Z,94154.19
2023-04-11T15:48:04.540Z,94164.34
2023-04-11T15:50:32.374Z,94180.28
2023-04-11T15:52:59.632Z,94172.63
2023-04-11T15:55:28.038Z,94162.91
2023-04-11T15:57:55.956Z,94156.28
2023-04-11T16:00:23.197Z,94142.00
2023-04-11T16:02:50.848Z,94168.56
2023-04-11T16:05:20.998Z,94172.22
2023-04-11T16:07:48.467Z,94171.47
2023-04-11T16:10:15.681Z,94170.34
2023-04-11T16:12:42.796Z,94148.06
2023-04-11T16:15:10.052Z,94163.06
2023-04-11T16:17:37.070Z,94114.16
2023-04-11T16:20:08.835Z,94154.75
2023-04-11T16:22:37.599Z,94157.19
2023-04-11T16:25:08.321Z,94158.59
2023-04-11T16:27:35.558Z,94166.63
2023-04-11T16:30:09.459Z,94152.00
2023-04-11T16:32:36.673Z,94172.97
2023-04-11T16:35:03.857Z,94148.09
2023-04-11T16:37:30.919Z,94147.56
2023-04-11T16:39:58.094Z,94169.53
2023-04-11T16:42:25.288Z,94166.06
2023-04-11T16:44:52.441Z,94167.94
2023-04-11T16:47:21.080Z,94164.50
2023-04-11T16:49:48.251Z,94163.97
2023-04-11T16:52:15.526Z,94146.63
2023-04-11T16:54:42.876Z,94091.97
2023-04-11T16:57:09.935Z,94137.31
2023-04-11T16:59:37.195Z,94146.16
2023-04-11T17:02:04.226Z,94164.81
2023-04-11T17:04:31.577Z,94154.41
2023-04-11T17:06:58.741Z,94160.28
2023-04-11T17:09:27.083Z,94164.84
2023-04-11T17:11:54.755Z,94162.72
2023-04-11T17:14:22.085Z,94170.72
2023-04-11T17:16:49.166Z,94172.03
2023-04-11T17:19:16.263Z,94152.28
2023-04-11T17:21:43.332Z,94146.16
2023-04-11T17:24:10.419Z,94167.78
2023-04-11T17:26:37.657Z,94168.84
2023-04-11T17:29:06.661Z,94146.97
2023-04-11T17:31:34.085Z,94103.72
2023-04-11T17:34:02.062Z,94181.13
2023-04-11T17:36:29.190Z,94152.31
2023-04-11T17:38:56.304Z,94136.00
2023-04-11T17:41:23.701Z,94185.66
2023-04-11T17:43:50.788Z,94175.25
2023-04-11T17:46:18.448Z,94194.47
2023-04-11T17:48:45.470Z,94173.13
2023-04-11T17:51:13.747Z,94198.22
2023-04-11T17:53:41.350Z,94158.16
2023-04-11T17:56:15.620Z,94195.53
2023-04-11T17:58:44.925Z,94190.75
2023-04-11T18:01:12.491Z,94131.22
2023-04-11T18:03:40.452Z,94113.56
2023-04-11T18:06:08.022Z,94109.78
2023-04-11T18:08:49.879Z,94197.66
2023-04-11T18:11:19.379Z,94203.00
2023-04-11T18:13:49.451Z,94182.16
2023-04-11T18:16:17.731Z,94185.38
2023-04-11T18:18:46.586Z,94172.03
2023-04-11T18:21:14.521Z,94201.69
2023-04-11T18:23:41.756Z,94184.06
2023-04-11T18:26:09.048Z,94211.53
2023-04-11T18:28:36.573Z,94202.19
2023-04-11T18:31:04.508Z,94191.53
2023-04-11T18:33:34.533Z,94221.66
2023-04-11T18:36:03.283Z,94223.50
2023-04-11T18:38:30.494Z,94216.06
2023-04-11T18:41:03.911Z,94214.19
2023-04-11T18:43:33.857Z,94208.03
2023-04-11T18:46:01.886Z,94186.38
2023-04-11T18:48:29.272Z,94223.78
2023-04-11T18:51:00.847Z,94217.41
2023-04-11T18:53:30.153Z,94202.16
2023-04-11T18:55:58.040Z,94185.59
2023-04-11T18:58:27.007Z,94216.34
2023-04-11T19:00:56.889Z,94216.31
2023-04-11T19:03:24.355Z,94220.31
2023-04-11T19:05:51.928Z,94210.16
2023-04-11T19:08:19.092Z,94193.59
2023-04-11T19:10:46.218Z,94185.03
2023-04-11T19:13:13.244Z,94212.03
2023-04-11T19:15:41.589Z,94217.91
2023-04-11T19:18:10.538Z,94178.56
2023-04-11T19:20:39.023Z,94214.41
2023-04-11T19:23:06.607Z,94195.97
2023-04-11T19:25:36.153Z,94224.84
2023-04-11T19:28:03.428Z,94223.50
2023-04-11T19:30:30.539Z,94214.44
2023-04-11T19:32:58.850Z,94180.50
2023-04-11T19:35:26.687Z,94213.03
2023-04-11T19:37:54.933Z,94214.91
2023-04-11T19:40:25.139Z,94182.78
2023-04-11T19:42:52.456Z,94195.88
2023-04-11T19:45:19.722Z,94220.75
2023-04-11T19:47:46.882Z,94208.41
2023-04-11T19:50:14.563Z,94223.88
2023-04-11T19:52:43.308Z,94218.25
2023-04-11T19:55:13.192Z,94222.22
2023-04-11T19:57:41.223Z,94145.50
2023-04-11T20:00:13.977Z,94210.19
2023-04-11T20:02:46.413Z,94195.72
2023-04-11T20:05:16.074Z,94185.25
2023-04-11T20:07:44.035Z,94211.22
2023-04-11T20:10:12.142Z,94215.69
2023-04-11T20:12:40.052Z,94213.81
2023-04-11T20:15:08.498Z,94205.75
2023-04-11T20:17:35.763Z,94211.63
2023-04-11T20:20:06.502Z,94197.16
2023-04-11T20:22:33.797Z,94209.47
2023-04-11T20:25:01.123Z,94205.44
2023-04-11T20:27:29.759Z,94129.53
2023-04-11T20:29:57.316Z,94189.63
2023-04-11T20:32:24.567Z,94204.34
2023-04-11T20:34:51.798Z,94194.75
2023-04-11T20:37:19.730Z,94156.16
2023-04-11T20:39:51.683Z,94094.38
2023-04-11T20:42:20.704Z,94082.63
2023-04-11T20:44:47.841Z,94187.38
2023-04-11T20:47:15.174Z,94205.25
2023-04-11T20:49:45.817Z,94181.22
2023-04-11T20:52:13.366Z,94202.06
2023-04-11T20:54:41.152Z,94199.91
2023-04-11T20:57:08.324Z,94196.19
2023-04-11T20:59:37.071Z,94180.72
2023-04-11T21:02:04.202Z,94187.38
2023-04-11T21:04:31.312Z,94193.53
2023-04-11T21:06:58.792Z,94194.34
2023-04-11T21:09:25.973Z,94175.13
2023-04-11T21:11:53.021Z,94164.94
2023-04-11T21:14:20.012Z,94190.38
2023-04-11T21:16:47.097Z,94190.63
2023-04-11T21:19:14.079Z,94183.66
2023-04-11T21:21:41.105Z,94175.66
2023-04-11T21:24:09.579Z,94178.56
2023-04-11T21:26:36.952Z,94126.75
2023-04-11T21:29:03.920Z,94183.22
2023-04-11T21:31:31.029Z,94167.41
2023-04-11T21:33:58.738Z,94175.16
2023-04-11T21:36:26.628Z,94164.19
2023-04-11T21:38:53.803Z,94182.13
2023-04-11T21:41:21.316Z,94169.88
2023-04-11T21:43:48.517Z,94152.81
2023-04-11T21:46:15.572Z,94173.41
2023-04-11T21:48:43.208Z,94178.47
2023-04-11T21:51:10.855Z,94177.16
2023-04-11T21:53:38.022Z,94162.50
2023-04-11T21:56:07.584Z,94068.44
2023-04-11T21:58:35.099Z,94165.19
2023-04-11T22:01:03.116Z,94175.06
2023-04-11T22:03:30.689Z,94161.13
2023-04-11T22:05:58.834Z,94155.75
2023-04-11T22:08:29.391Z,94160.88
2023-04-11T22:10:56.692Z,94142.69
2023-04-11T22:13:24.010Z,94155.50
2023-04-11T22:16:10.439Z,94163.81
2023-04-11T22:18:49.893Z,94141.34
2023-04-11T22:21:20.213Z,94159.53
2023-04-11T22:23:58.240Z,94150.19
2023-04-11T22:26:29.742Z,94129.63
2023-04-11T22:29:02.030Z,94071.34
2023-04-11T22:31:30.631Z,94126.94
2023-04-11T22:33:58.158Z,94132.50
2023-04-11T22:36:25.488Z,94134.41
2023-04-11T22:38:53.085Z,94111.41
2023-04-11T22:54:57.227Z,94088.47
2023-04-11T22:57:24.456Z,94139.16
2023-04-11T22:59:52.428Z,94136.19
2023-04-11T23:02:19.530Z,94134.56
2023-04-11T23:04:48.879Z,94128.16
2023-04-11T23:07:16.992Z,94135.09
2023-04-11T23:09:44.983Z,94136.38
2023-04-11T23:12:12.219Z,94124.06
2023-04-11T23:14:39.615Z,94133.94
2023-04-11T23:17:06.690Z,94126.72
2023-04-11T23:19:34.185Z,94118.44
2023-04-11T23:22:01.251Z,94121.09
2023-04-11T23:24:29.066Z,94073.03
2023-04-11T23:26:56.951Z,94107.44
2023-04-11T23:29:24.056Z,94106.41
2023-04-11T23:31:51.620Z,94124.00
2023-04-11T23:34:18.623Z,94084.16
2023-04-11T23:36:46.050Z,94055.88
2023-04-11T23:39:12.941Z,94075.91
2023-04-11T23:41:40.320Z,94099.97
2023-04-11T23:44:07.282Z,94093.78
2023-04-11T23:46:34.443Z,94109.56
2023-04-11T23:49:01.504Z,94067.13
2023-04-11T23:51:28.444Z,94102.31
2023-04-11T23:53:56.291Z,94086.06
2023-04-11T23:56:23.830Z,94092.22
2023-04-11T23:58:51.212Z,94093.53
